Time;durP1;ratioP1;P1;durP2;ratioP2;P2;SDS_P1;SDS_P2;PMS_P1;PMS_P2;Temp;Humidity;BMP_temperature;BMP_pressure;BME280_temperature;BME280_humidity;BME280_pressure;Samples;Min_cycle;Max_cycle;Signal;HPM_P1;HPM_P2
2023/03/31 00:00:56;;;;;;;35.35;6.40;;;;;;;9.64;100.00;97813.69;5004467;28;20045;-46
2023/03/31 00:03:23;;;;;;;26.38;4.65;;;;;;;9.63;100.00;97811.34;5000610;28;20054;-48
2023/03/31 00:05:55;;;;;;;18.77;3.72;;;;;;;9.61;100.00;97808.22;5005501;28;20590;-47
2023/03/31 00:08:21;;;;;;;14.95;4.00;;;;;;;9.61;100.00;97808.97;4989141;28;20057;-51
2023/03/31 00:10:48;;;;;;;21.98;3.75;;;;;;;9.57;100.00;97804.69;5005262;28;20430;-47
2023/03/31 00:13:15;;;;;;;16.13;3.97;;;;;;;9.54;100.00;97800.75;5007958;28;20504;-47
2023/03/31 00:15:42;;;;;;;20.58;4.22;;;;;;;9.54;100.00;97791.69;5008729;28;20624;-47
2023/03/31 00:18:09;;;;;;;11.23;3.50;;;;;;;9.53;100.00;97785.38;5007737;28;20045;-47
2023/03/31 00:20:36;;;;;;;19.80;3.60;;;;;;;9.51;100.00;97778.69;5008995;28;20042;-49
2023/03/31 00:23:09;;;;;;;18.90;2.97;;;;;;;9.52;100.00;97777.50;5008297;28;20104;-45
2023/03/31 00:25:40;;;;;;;19.23;4.07;;;;;;;9.49;100.00;97779.13;5008607;28;20046;-45
2023/03/31 00:28:07;;;;;;;20.65;3.15;;;;;;;9.46;100.00;97774.41;5008861;28;20038;-52
2023/03/31 00:30:34;;;;;;;21.60;3.75;;;;;;;9.46;100.00;97779.16;5012075;28;20049;-46
2023/03/31 00:33:00;;;;;;;14.55;3.67;;;;;;;9.44;100.00;97776.81;5011344;28;20108;-47
2023/03/31 00:35:27;;;;;;;30.38;4.55;;;;;;;9.44;100.00;97764.97;5012822;28;20057;-46
2023/03/31 00:37:56;;;;;;;22.35;3.42;;;;;;;9.45;100.00;97766.56;5012775;28;20041;-45
2023/03/31 00:40:23;;;;;;;29.88;4.70;;;;;;;9.44;100.00;97760.25;5010915;28;20046;-50
2023/03/31 00:42:50;;;;;;;21.65;4.50;;;;;;;9.41;100.00;97763.81;5006165;28;20132;-45
2023/03/31 00:45:22;;;;;;;19.10;3.45;;;;;;;9.38;100.00;97761.06;5012124;28;20681;-45
2023/03/31 00:48:04;;;;;;;23.48;5.43;;;;;;;9.37;100.00;97762.28;5011738;28;20046;-47
2023/03/31 00:50:34;;;;;;;;;;;;;;;9.35;100.00;97756.38;5013124;28;20041;-44
2023/03/31 00:53:13;;;;;;;20.50;3.05;;;;;;;9.33;100.00;97753.25;5012993;28;19972;-46
2023/03/31 00:55:44;;;;;;;18.23;3.33;;;;;;;9.31;100.00;97755.63;5012948;28;20057;-45
2023/03/31 00:58:14;;;;;;;26.48;4.10;;;;;;;9.31;100.00;97755.63;5011518;28;20038;-44
2023/03/31 01:00:41;;;;;;;23.60;3.75;;;;;;;9.31;100.00;97755.63;5007775;28;20059;-46
2023/03/31 01:03:09;;;;;;;27.98;5.03;;;;;;;9.31;100.00;97758.41;5012827;28;20041;-47
2023/03/31 01:05:44;;;;;;;13.95;3.30;;;;;;;9.32;100.00;97757.22;5012403;28;20440;-44
2023/03/31 01:08:13;;;;;;;19.58;5.40;;;;;;;9.34;100.00;97752.06;5012095;28;20508;-45
2023/03/31 01:10:45;;;;;;;25.30;4.15;;;;;;;9.36;100.00;97741.38;5011998;28;20133;-44
2023/03/31 01:13:14;;;;;;;23.50;3.42;;;;;;;9.34;100.00;97743.78;5010629;28;20061;-44
2023/03/31 01:15:41;;;;;;;19.35;4.28;;;;;;;9.31;100.00;97736.31;5012038;28;20401;-44
2023/03/31 01:18:10;;;;;;;30.35;4.05;;;;;;;9.30;100.00;97731.97;5011523;28;20136;-45
2023/03/31 01:21:05;;;;;;;15.80;3.80;;;;;;;9.31;100.00;97730.78;5012829;28;20064;-44
2023/03/31 01:23:46;;;;;;;26.20;4.25;;;;;;;9.34;100.00;97727.22;5001299;28;20557;-45
2023/03/31 01:26:41;;;;;;;15.73;5.63;;;;;;;9.31;100.00;97711.47;5011717;28;20542;-47
2023/03/31 01:29:26;;;;;;;13.73;2.63;;;;;;;9.33;100.00;97714.59;5009919;28;20045;-46
2023/03/31 01:32:50;;;;;;;12.82;2.55;;;;;;;9.33;100.00;97715.38;5012188;28;20137;-48
2023/03/31 01:35:39;;;;;;;21.92;3.38;;;;;;;9.32;100.00;97710.28;4903480;29;20613;-44
2023/03/31 01:38:15;;;;;;;16.52;2.28;;;;;;;9.33;100.00;97712.63;4914126;29;20103;-44
2023/03/31 01:41:20;;;;;;;17.15;3.95;;;;;;;9.30;100.00;97707.13;4969129;28;20059;-45
2023/03/31 01:44:22;;;;;;;22.25;2.85;;;;;;;9.29;100.00;97713.84;4925041;29;20111;-48
2023/03/31 01:47:08;;;;;;;20.23;3.50;;;;;;;9.28;100.00;97701.25;4954004;28;20069;-44
2023/03/31 01:49:53;;;;;;;19.00;3.47;;;;;;;9.27;100.00;97707.94;5004339;28;20058;-44
2023/03/31 01:52:40;;;;;;;28.50;4.40;;;;;;;9.24;100.00;97706.03;4999817;28;20732;-48
2023/03/31 01:55:28;;;;;;;26.90;7.45;;;;;;;9.23;100.00;97698.94;5009355;28;20520;-44
2023/03/31 01:58:13;;;;;;;23.45;4.22;;;;;;;9.20;100.00;97711.56;5005144;28;20045;-48
2023/03/31 02:00:55;;;;;;;18.63;3.65;;;;;;;9.20;100.00;97708.81;5005595;28;20444;-44
2023/03/31 02:03:31;;;;;;;22.95;3.67;;;;;;;9.19;100.00;97707.22;5007455;28;20088;-44
2023/03/31 02:06:07;;;;;;;22.75;4.10;;;;;;;9.18;100.00;97700.94;5002825;28;20121;-48
2023/03/31 02:08:44;;;;;;;24.02;4.93;;;;;;;9.19;100.00;97694.22;5003690;28;20841;-45
2023/03/31 02:11:11;;;;;;;22.95;4.07;;;;;;;9.19;100.00;97698.94;4999029;28;20050;-51
2023/03/31 02:13:43;;;;;;;24.80;3.45;;;;;;;9.18;100.00;97698.19;5001971;28;20042;-48
2023/03/31 02:16:17;;;;;;;21.02;2.88;;;;;;;9.19;100.00;97699.75;5009050;28;20046;-45
2023/03/31 02:18:47;;;;;;;26.30;3.50;;;;;;;9.20;100.00;97689.50;5010582;28;20050;-49
2023/03/31 02:21:15;;;;;;;26.33;4.10;;;;;;;9.21;100.00;97696.59;5000321;28;20496;-47
2023/03/31 02:23:44;;;;;;;14.23;4.47;;;;;;;9.22;100.00;97697.34;5009898;28;20484;-46
2023/03/31 02:26:19;;;;;;;12.50;2.58;;;;;;;9.21;100.00;97687.53;5010659;28;20077;-49
2023/03/31 02:28:46;;;;;;;13.10;3.28;;;;;;;9.20;100.00;97689.50;5011261;28;20046;-48
2023/03/31 02:31:20;;;;;;;21.25;4.30;;;;;;;9.19;100.00;97693.44;5010543;28;20046;-46
2023/03/31 02:33:48;;;;;;;20.67;3.40;;;;;;;9.21;100.00;97698.56;5006453;28;20049;-46
2023/03/31 02:36:16;;;;;;;18.95;3.25;;;;;;;9.18;100.00;97692.69;5010337;28;20050;-46
2023/03/31 02:38:49;;;;;;;24.40;5.20;;;;;;;9.17;100.00;97696.63;5008742;28;20495;-46
2023/03/31 02:41:15;;;;;;;22.35;3.30;;;;;;;9.16;100.00;97695.03;5010159;28;20396;-46
2023/03/31 02:43:42;;;;;;;23.88;4.97;;;;;;;9.16;100.00;97695.03;5010182;28;20451;-45
2023/03/31 02:46:10;;;;;;;28.20;3.78;;;;;;;9.17;100.00;97685.56;4985588;28;20053;-48
2023/03/31 02:48:46;;;;;;;21.15;4.20;;;;;;;9.17;100.00;97690.31;4985958;28;20732;-46
2023/03/31 02:51:16;;;;;;;18.83;3.88;;;;;;;9.14;100.00;97691.91;5004106;28;20056;-45
2023/03/31 02:54:01;;;;;;;28.33;4.75;;;;;;;9.13;100.00;97692.34;5004624;28;20125;-45
2023/03/31 02:56:43;;;;;;;21.88;5.45;;;;;;;9.10;100.00;97688.41;4997667;28;20053;-45
2023/03/31 02:59:31;;;;;;;18.98;3.03;;;;;;;9.10;100.00;97691.19;5006587;28;20061;-46
2023/03/31 03:02:07;;;;;;;19.20;3.15;;;;;;;9.08;100.00;97693.53;5031026;23;20069;-45
2023/03/31 03:04:48;;;;;;;23.45;3.70;;;;;;;9.08;100.00;97688.03;5006994;28;20044;-46
2023/03/31 03:07:15;;;;;;;13.40;2.67;;;;;;;9.07;100.00;97686.47;4999106;28;20045;-45
2023/03/31 03:09:55;;;;;;;31.05;6.10;;;;;;;9.06;100.00;97687.66;5007810;28;20432;-45
2023/03/31 03:12:37;;;;;;;23.98;6.28;;;;;;;9.07;100.00;97692.00;5005873;28;20038;-46
2023/03/31 03:15:16;;;;;;;22.90;3.85;;;;;;;9.06;100.00;97693.16;4999210;28;20411;-48
2023/03/31 03:17:53;;;;;;;28.13;6.10;;;;;;;9.05;100.00;97677.78;5001471;28;20049;-51
2023/03/31 03:20:21;;;;;;;17.00;4.85;;;;;;;9.08;100.00;97693.53;5011172;28;20133;-47
2023/03/31 03:22:47;;;;;;;37.15;5.78;;;;;;;9.06;100.00;97684.09;5006955;28;20096;-51
2023/03/31 03:25:16;;;;;;;19.20;4.70;;;;;;;9.04;100.00;97684.53;5003009;28;20073;-45
2023/03/31 03:27:43;;;;;;;27.15;4.95;;;;;;;9.02;100.00;97692.44;4999199;28;20048;-45
2023/03/31 03:30:12;;;;;;;33.60;5.60;;;;;;;9.01;100.00;97693.63;4975269;28;20145;-45
2023/03/31 03:32:40;;;;;;;29.33;5.90;;;;;;;9.03;100.00;97684.91;5003347;28;20053;-49
2023/03/31 03:35:07;;;;;;;39.20;5.53;;;;;;;9.02;100.00;97689.69;5004185;28;20061;-46
2023/03/31 03:37:34;;;;;;;26.50;6.20;;;;;;;9.01;100.00;97692.81;5002976;28;20042;-49
2023/03/31 03:40:04;;;;;;;31.15;4.88;;;;;;;9.02;100.00;97689.69;5006499;28;20503;-48
2023/03/31 03:42:32;;;;;;;44.47;5.32;;;;;;;9.03;100.00;97688.47;5004111;28;20041;-45
2023/03/31 03:45:00;;;;;;;27.67;5.38;;;;;;;9.04;100.00;97687.28;5002656;28;20111;-48
2023/03/31 03:47:27;;;;;;;37.47;6.32;;;;;;;9.06;100.00;97690.41;5006415;28;20045;-45
2023/03/31 03:49:54;;;;;;;36.67;7.75;;;;;;;9.05;100.00;97691.59;4998527;28;20148;-47
2023/03/31 03:52:21;;;;;;;31.45;5.78;;;;;;;9.03;100.00;97696.75;5003861;28;20073;-47
2023/03/31 03:54:48;;;;;;;38.90;8.77;;;;;;;9.03;100.00;97702.25;5006626;28;20407;-45
2023/03/31 03:57:15;;;;;;;23.30;5.25;;;;;;;9.03;100.00;97702.25;5006160;28;20062;-46
2023/03/31 03:59:42;;;;;;;31.70;5.53;;;;;;;9.04;100.00;97700.28;4986620;28;20431;-47
2023/03/31 04:02:09;;;;;;;39.00;6.28;;;;;;;9.03;100.00;97698.72;5004879;28;20149;-48
2023/03/31 04:04:36;;;;;;;34.17;5.35;;;;;;;9.03;100.00;97704.22;5003899;28;20045;-45
2023/03/31 04:07:03;;;;;;;25.15;4.38;;;;;;;9.02;100.00;97706.22;5004538;28;20038;-49
2023/03/31 04:09:30;;;;;;;32.83;5.45;;;;;;;9.03;100.00;97699.50;5001472;28;20060;-45
2023/03/31 04:11:57;;;;;;;20.45;4.45;;;;;;;9.00;100.00;97703.06;4988572;28;20046;-46
2023/03/31 04:14:24;;;;;;;25.45;4.70;;;;;;;9.01;100.00;97709.38;5008825;28;20042;-49
2023/03/31 04:16:55;;;;;;;27.98;4.07;;;;;;;9.00;100.00;97707.84;4991382;28;20865;-46
2023/03/31 04:19:24;;;;;;;27.23;5.25;;;;;;;8.99;100.00;97711.78;5008874;28;20057;-47
2023/03/31 04:21:57;;;;;;;28.55;5.05;;;;;;;8.99;100.00;97715.31;5008683;28;20050;-48
2023/03/31 04:24:29;;;;;;;28.38;4.18;;;;;;;9.00;100.00;97716.13;5008697;28;20080;-46
2023/03/31 04:26:56;;;;;;;24.33;5.47;;;;;;;9.02;100.00;97717.28;4991805;28;20041;-48
2023/03/31 04:29:25;;;;;;;24.00;5.53;;;;;;;9.04;100.00;97720.41;5008694;28;20057;-45
2023/03/31 04:31:57;;;;;;;25.67;6.18;;;;;;;9.07;100.00;97719.59;5008666;28;20440;-47
2023/03/31 04:34:33;;;;;;;;;;;;;;;9.11;100.00;97720.31;5009078;28;20052;-46
2023/03/31 04:37:02;;;;;;;34.60;5.85;;;;;;;9.12;100.00;97732.94;5008735;28;20338;-46
2023/03/31 04:39:29;;;;;;;23.42;4.10;;;;;;;9.15;100.00;97729.38;5008497;28;20450;-45
2023/03/31 04:41:57;;;;;;;43.75;4.15;;;;;;;9.15;100.00;97737.66;4999020;28;20484;-45
2023/03/31 04:44:24;;;;;;;27.02;4.40;;;;;;;9.18;100.00;97744.31;5003948;28;20141;-47
2023/03/31 04:46:52;;;;;;;32.05;4.72;;;;;;;9.21;100.00;97751.00;5002101;28;20053;-45
2023/03/31 04:49:19;;;;;;;30.52;4.40;;;;;;;9.24;100.00;97742.66;5001182;28;20120;-45
2023/03/31 04:51:46;;;;;;;34.75;5.32;;;;;;;9.25;100.00;97746.22;5003797;28;20100;-45
2023/03/31 04:54:12;;;;;;;26.85;3.78;;;;;;;9.25;100.00;97752.53;5007254;28;20050;-45
2023/03/31 04:56:39;;;;;;;25.83;5.78;;;;;;;9.26;100.00;97758.84;5008440;28;20380;-49
2023/03/31 04:59:07;;;;;;;25.92;4.65;;;;;;;9.29;100.00;97758.03;4998724;28;20042;-45
2023/03/31 05:01:35;;;;;;;31.58;4.88;;;;;;;9.29;100.00;97753.28;5010415;28;20388;-45
2023/03/31 05:04:04;;;;;;;17.40;3.92;;;;;;;9.28;100.00;97750.94;5005114;28;20041;-45
2023/03/31 05:06:31;;;;;;;23.83;4.75;;;;;;;9.28;100.00;97759.22;5003970;28;20054;-48
2023/03/31 05:08:58;;;;;;;30.38;4.55;;;;;;;9.27;100.00;97757.63;4998792;28;20140;-46
2023/03/31 05:11:25;;;;;;;32.95;5.30;;;;;;;9.25;100.00;97763.56;5002150;28;20416;-46
2023/03/31 05:13:52;;;;;;;19.42;4.53;;;;;;;9.24;100.00;97772.28;4997868;28;20419;-49
2023/03/31 05:16:20;;;;;;;39.00;5.10;;;;;;;9.23;100.00;97773.44;5002145;28;20058;-45
2023/03/31 05:18:47;;;;;;;27.35;5.00;;;;;;;9.23;100.00;97776.22;5009253;28;20053;-46
2023/03/31 05:21:20;;;;;;;38.67;5.57;;;;;;;9.24;100.00;97773.03;5009928;28;20050;-52
2023/03/31 05:23:47;;;;;;;28.30;5.78;;;;;;;9.26;100.00;97776.19;5004232;28;20044;-45
2023/03/31 05:26:15;;;;;;;30.52;4.88;;;;;;;9.25;100.00;97771.84;5011730;28;20042;-45
2023/03/31 05:28:42;;;;;;;34.00;5.80;;;;;;;9.23;100.00;97777.00;5011917;28;20146;-49
2023/03/31 05:31:11;;;;;;;26.90;4.20;;;;;;;9.23;100.00;97782.53;5011145;28;20048;-46
2023/03/31 05:33:40;;;;;;;44.83;6.13;;;;;;;9.23;100.00;97784.50;5012088;28;20057;-45
2023/03/31 05:36:10;;;;;;;34.38;6.00;;;;;;;9.23;100.00;97793.56;5001005;28;20038;-46
2023/03/31 05:38:38;;;;;;;25.38;5.35;;;;;;;9.22;100.00;97802.25;5011449;28;20561;-45
2023/03/31 05:41:08;;;;;;;30.10;5.28;;;;;;;9.23;100.00;97809.34;5011089;28;20511;-47
2023/03/31 05:43:36;;;;;;;31.13;5.18;;;;;;;9.23;100.00;97812.09;5011005;28;20065;-49
2023/03/31 05:46:03;;;;;;;34.38;6.25;;;;;;;9.22;100.00;97807.75;5011411;28;20041;-45
2023/03/31 05:48:31;;;;;;;26.20;5.35;;;;;;;9.19;100.00;97823.94;5011359;28;20591;-45
2023/03/31 05:50:59;;;;;;;37.20;6.90;;;;;;;9.22;100.00;97824.31;5011294;28;20503;-47
2023/03/31 05:53:26;;;;;;;29.58;6.00;;;;;;;9.23;100.00;97831.44;5011396;28;20061;-52
2023/03/31 05:56:01;;;;;;;27.17;5.72;;;;;;;9.23;100.00;97846.00;5010487;28;20145;-45
2023/03/31 05:58:28;;;;;;;39.03;6.78;;;;;;;9.23;100.00;97845.22;4999153;28;20491;-46
2023/03/31 06:01:07;;;;;;;29.00;5.75;;;;;;;9.23;100.00;97853.50;5009475;28;20089;-45
2023/03/31 06:03:36;;;;;;;23.65;5.72;;;;;;;9.25;100.00;97856.63;5009049;28;20068;-52
2023/03/31 06:06:07;;;;;;;29.27;6.00;;;;;;;9.24;100.00;97860.59;5008796;28;20053;-45
2023/03/31 06:08:35;;;;;;;29.00;6.20;;;;;;;9.25;100.00;97864.91;5008524;28;20042;-45
2023/03/31 06:11:13;;;;;;;30.58;5.32;;;;;;;9.25;100.00;97860.19;4991641;28;20056;-46
2023/03/31 06:13:40;;;;;;;29.30;7.18;;;;;;;9.28;100.00;97864.13;5009391;28;20077;-46
2023/03/31 06:16:07;;;;;;;32.03;7.07;;;;;;;9.27;100.00;97865.28;5007811;28;20522;-45
2023/03/31 06:18:35;;;;;;;38.75;9.05;;;;;;;9.27;100.00;97862.53;5003034;28;20049;-45
2023/03/31 06:21:02;;;;;;;34.35;7.95;;;;;;;9.28;100.00;97869.63;5008964;28;20034;-50
2023/03/31 06:23:30;;;;;;;43.72;6.72;;;;;;;9.28;100.00;97875.16;5006464;28;20045;-45
2023/03/31 06:26:03;;;;;;;35.47;8.23;;;;;;;9.28;100.00;97877.91;4993757;28;20128;-45
2023/03/31 06:28:30;;;;;;;50.83;8.60;;;;;;;9.31;100.00;97886.19;5007583;28;20073;-45
2023/03/31 06:31:05;;;;;;;29.38;7.47;;;;;;;9.31;100.00;97894.47;5005290;28;20129;-47
2023/03/31 06:33:33;;;;;;;30.65;6.53;;;;;;;9.30;100.00;97892.09;5001698;28;20391;-45
2023/03/31 06:36:02;;;;;;;34.85;6.70;;;;;;;9.31;100.00;97911.03;5009515;28;20045;-45
2023/03/31 06:38:30;;;;;;;29.40;6.57;;;;;;;9.32;100.00;97906.28;5007839;28;20050;-45
2023/03/31 06:40:57;;;;;;;30.75;6.53;;;;;;;9.32;100.00;97915.34;5008043;28;20057;-45
2023/03/31 06:43:24;;;;;;;34.03;6.60;;;;;;;9.32;100.00;97917.34;4987611;28;20061;-50
2023/03/31 06:45:54;;;;;;;30.35;6.68;;;;;;;9.34;100.00;97915.75;5003245;28;20495;-44
2023/03/31 06:48:23;;;;;;;34.83;6.70;;;;;;;9.35;100.00;97927.53;5001737;28;20050;-50
2023/03/31 06:50:52;;;;;;;40.10;7.00;;;;;;;9.39;100.00;97933.84;5007227;28;20048;-45
2023/03/31 06:53:21;;;;;;;33.10;7.43;;;;;;;9.40;100.00;97940.94;4992861;28;20058;-45
2023/03/31 06:55:48;;;;;;;32.97;6.57;;;;;;;9.41;100.00;97937.78;5009807;28;20038;-45
2023/03/31 06:58:15;;;;;;;30.17;7.53;;;;;;;9.41;100.00;97943.28;5010189;28;20045;-44
2023/03/31 07:00:44;;;;;;;29.17;6.05;;;;;;;9.47;100.00;97954.69;5010736;28;20495;-45
2023/03/31 07:03:11;;;;;;;35.90;8.40;;;;;;;9.47;100.00;97958.25;5010074;28;20046;-52
2023/03/31 07:05:38;;;;;;;27.52;7.13;;;;;;;9.49;100.00;97958.63;4992938;28;20415;-45
2023/03/31 07:08:05;;;;;;;40.13;8.82;;;;;;;9.51;100.00;97947.94;5009858;28;20050;-45
2023/03/31 07:10:32;;;;;;;26.65;6.65;;;;;;;9.53;100.00;97961.38;5009954;28;20566;-45
2023/03/31 07:12:59;;;;;;;37.53;7.90;;;;;;;9.53;100.00;97966.88;5009655;28;20069;-51
2023/03/31 07:15:27;;;;;;;27.85;6.53;;;;;;;9.52;100.00;97970.84;5010268;28;20060;-46
2023/03/31 07:18:00;;;;;;;34.67;7.15;;;;;;;9.50;100.00;97981.50;5021570;28;20037;-47
2023/03/31 07:20:29;;;;;;;36.15;8.55;;;;;;;9.49;100.00;97983.47;5010763;28;20046;-46
2023/03/31 07:22:56;;;;;;;31.05;8.02;;;;;;;9.52;100.00;97995.69;5010057;28;20050;-46
2023/03/31 07:25:23;;;;;;;26.13;8.75;;;;;;;9.55;100.00;98001.19;5009646;28;20046;-48
2023/03/31 07:27:49;;;;;;;28.08;7.65;;;;;;;9.57;100.00;98006.31;4991957;28;20635;-46
2023/03/31 07:30:18;;;;;;;22.45;7.50;;;;;;;9.58;100.00;97997.59;5009596;28;20038;-46
2023/03/31 07:32:47;;;;;;;32.45;8.50;;;;;;;9.62;100.00;98008.63;5009634;28;20050;-46
2023/03/31 07:35:14;;;;;;;30.42;8.65;;;;;;;9.67;100.00;98009.00;5007765;28;20502;-48
2023/03/31 07:37:43;;;;;;;30.00;8.05;;;;;;;9.72;100.00;98019.63;5003556;28;20484;-46
2023/03/31 07:40:14;;;;;;;30.40;8.20;;;;;;;9.74;100.00;98022.00;5009552;28;20053;-48
2023/03/31 07:42:42;;;;;;;24.27;7.83;;;;;;;9.77;100.00;98026.69;5009052;28;20164;-50
2023/03/31 07:45:09;;;;;;;29.05;8.48;;;;;;;9.79;100.00;98033.38;5005693;28;20296;-51
2023/03/31 07:47:38;;;;;;;35.42;9.00;;;;;;;9.80;100.00;98042.44;5006399;28;20459;-49
2023/03/31 07:50:06;;;;;;;30.25;8.45;;;;;;;9.79;100.00;98041.66;5003363;28;20053;-47
2023/03/31 07:52:33;;;;;;;29.13;10.20;;;;;;;9.79;100.00;98044.41;5005595;28;20057;-47
2023/03/31 07:55:00;;;;;;;40.63;10.93;;;;;;;9.80;100.00;98042.44;5006993;28;20049;-47
2023/03/31 07:57:26;;;;;;;24.10;9.52;;;;;;;9.84;100.00;98050.72;5001412;28;20044;-48
2023/03/31 07:59:53;;;;;;;38.22;10.13;;;;;;;9.86;100.00;98060.19;5005472;28;20452;-47
2023/03/31 08:02:20;;;;;;;35.75;8.70;;;;;;;9.91;100.00;98062.50;5004213;28;20058;-48
2023/03/31 08:04:46;;;;;;;33.28;8.73;;;;;;;9.94;100.00;98066.44;5006395;28;20041;-47
2023/03/31 08:07:15;;;;;;;37.47;8.35;;;;;;;9.94;100.00;98074.72;5009092;28;20663;-48
2023/03/31 08:09:44;;;;;;;29.55;8.27;;;;;;;9.93;100.00;98073.94;5006490;28;20107;-47
2023/03/31 08:12:11;;;;;;;24.42;7.70;;;;;;;9.91;100.00;98076.31;5008588;28;20366;-50
2023/03/31 08:14:38;;;;;;;30.13;8.10;;;;;;;9.89;100.00;98084.25;5005603;28;20041;-51
2023/03/31 08:17:08;;;;;;;35.72;9.65;;;;;;;9.87;100.00;98097.69;5007792;28;20168;-47
2023/03/31 08:19:35;;;;;;;30.98;8.93;;;;;;;9.88;100.00;98102.00;5002710;28;20046;-49
2023/03/31 08:22:02;;;;;;;25.33;7.75;;;;;;;9.87;100.00;98100.44;5006577;28;20662;-47
2023/03/31 08:24:29;;;;;;;27.38;7.75;;;;;;;9.85;100.00;98111.09;5004091;28;20073;-45
2023/03/31 08:26:56;;;;;;;32.78;6.25;;;;;;;9.86;100.00;98106.34;5007968;28;20053;-45
2023/03/31 08:29:22;;;;;;;19.98;6.22;;;;;;;9.85;100.00;98111.09;5008609;28;20042;-45
2023/03/31 08:31:49;;;;;;;23.40;6.82;;;;;;;9.86;100.00;98115.44;5007439;28;20052;-47
2023/03/31 08:34:17;;;;;;;19.42;5.60;;;;;;;9.86;100.00;98120.19;5003090;28;20073;-46
2023/03/31 08:36:44;;;;;;;21.58;6.68;;;;;;;9.89;100.00;98125.69;5006663;28;20064;-45
2023/03/31 08:39:11;;;;;;;26.55;6.57;;;;;;;9.89;100.00;98125.69;5008378;28;20046;-45
2023/03/31 08:42:02;;;;;;;19.50;6.43;;;;;;;9.89;100.00;98128.47;5008903;28;20052;-45
2023/03/31 08:44:40;;;;;;;17.75;4.60;;;;;;;9.90;100.00;98130.00;5004545;28;20470;-46
2023/03/31 08:47:14;;;;;;;25.17;8.18;;;;;;;9.93;100.00;98139.50;5005251;28;20542;-45
2023/03/31 08:49:47;;;;;;;23.17;6.40;;;;;;;9.98;100.00;98147.38;5008424;28;20058;-45
2023/03/31 08:52:22;;;;;;;20.75;5.45;;;;;;;10.01;100.00;98147.31;5004807;28;20045;-47
2023/03/31 08:54:55;;;;;;;21.35;6.25;;;;;;;10.04;100.00;98146.50;5010263;28;20050;-48
2023/03/31 08:57:30;;;;;;;18.70;5.60;;;;;;;10.10;100.00;98158.72;5010253;28;20042;-46
2023/03/31 09:00:05;;;;;;;33.88;7.65;;;;;;;10.14;100.00;98156.75;4994374;28;20042;-46
2023/03/31 09:02:48;;;;;;;25.20;6.03;;;;;;;10.19;100.00;98159.06;5011189;28;20066;-46
2023/03/31 09:05:37;;;;;;;23.20;5.75;;;;;;;10.24;100.00;98161.44;4991922;28;20148;-46
2023/03/31 09:08:32;;;;;;;18.13;5.20;;;;;;;10.24;100.00;98164.22;5009898;28;20085;-48
2023/03/31 09:11:10;;;;;;;17.02;5.22;;;;;;;10.21;100.00;98170.53;5010529;28;20049;-46
2023/03/31 09:13:43;;;;;;;20.60;5.35;;;;;;;10.21;100.00;98166.97;5010278;28;20050;-47
2023/03/31 09:16:15;;;;;;;17.20;4.93;;;;;;;10.24;100.00;98178.03;5014423;28;20037;-46
2023/03/31 09:18:45;;;;;;;49.13;7.95;;;;;;;10.29;100.00;98179.56;5010777;28;20571;-46
2023/03/31 09:21:31;;;;;;;15.90;5.50;;;;;;;10.34;100.00;98177.16;5009246;28;20447;-46
2023/03/31 09:24:10;;;;;;;13.55;5.55;;;;;;;10.40;100.00;98188.59;5011302;28;20164;-48
2023/03/31 09:26:43;;;;;;;17.38;6.40;;;;;;;10.46;100.00;98188.94;5008991;28;20042;-47
2023/03/31 09:29:28;;;;;;;20.45;5.90;;;;;;;10.46;100.00;98195.25;5011607;28;20507;-46
2023/03/31 09:32:17;;;;;;;22.83;6.07;;;;;;;10.52;100.00;98198.38;5010745;28;20049;-46
2023/03/31 09:34:45;;;;;;;17.90;5.55;;;;;;;10.57;100.00;98206.22;5000206;28;20577;-52
2023/03/31 09:37:12;;;;;;;20.58;4.78;;;;;;;10.61;100.00;98212.53;5009965;28;20427;-46
2023/03/31 09:39:39;;;;;;;18.17;4.70;;;;;;;10.64;100.00;98208.97;5007962;28;20116;-46
2023/03/31 09:42:11;;;;;;;22.52;6.05;;;;;;;10.66;100.00;98221.19;5011292;28;20058;-48
2023/03/31 09:44:48;;;;;;;21.08;4.72;;;;;;;10.66;100.00;98220.41;5010750;28;20050;-51
2023/03/31 09:47:18;;;;;;;13.88;3.97;;;;;;;10.68;100.00;98229.06;5007999;28;20120;-48
2023/03/31 09:49:46;;;;;;;17.60;3.83;;;;;;;10.70;100.00;98227.47;5007619;28;20083;-47
2023/03/31 09:52:31;;;;;;;12.55;4.63;;;;;;;10.71;100.00;98239.34;5009089;28;20038;-49
2023/03/31 09:55:01;;;;;;;22.50;4.78;;;;;;;10.70;100.00;98237.75;5006531;28;20514;-48
2023/03/31 09:57:34;;;;;;;15.02;3.85;;;;;;;10.74;100.00;98244.84;5010250;28;20523;-47
2023/03/31 10:00:20;;;;;;;21.10;4.57;;;;;;;10.80;100.00;98248.75;4992459;28;20054;-48
2023/03/31 10:02:52;;;;;;;15.70;5.03;;;;;;;10.84;100.00;98255.06;5007945;28;20084;-47
2023/03/31 10:05:35;;;;;;;18.23;4.45;;;;;;;10.86;100.00;98271.25;5006578;28;20129;-48
2023/03/31 10:08:20;;;;;;;16.25;3.50;;;;;;;10.89;100.00;98273.19;5000958;28;20042;-47
2023/03/31 10:11:02;;;;;;;14.45;5.25;;;;;;;10.86;100.00;98276.78;5007906;28;20691;-47
2023/03/31 10:13:42;;;;;;;11.15;3.88;;;;;;;10.86;100.00;98276.78;5000397;28;20053;-48
2023/03/31 10:16:14;;;;;;;23.50;5.07;;;;;;;10.83;100.00;98275.63;5009574;28;20061;-47
2023/03/31 10:18:42;;;;;;;17.15;5.10;;;;;;;10.81;100.00;98285.50;5010017;28;20049;-47
2023/03/31 10:21:21;;;;;;;21.75;6.82;;;;;;;10.80;100.00;98286.72;5009760;28;20038;-48
2023/03/31 10:23:50;;;;;;;18.70;5.22;;;;;;;10.75;100.00;98293.47;5008862;28;20049;-47
2023/03/31 10:26:23;;;;;;;25.48;8.45;;;;;;;10.75;100.00;98295.47;5010810;28;20049;-49
2023/03/31 10:28:54;;;;;;;20.52;4.07;;;;;;;10.80;100.00;98300.56;5009118;28;20042;-48
2023/03/31 10:31:25;;;;;;;16.47;6.03;;;;;;;10.85;100.00;98311.19;5010269;28;20034;-48
2023/03/31 10:33:53;;;;;;;17.70;5.65;;;;;;;10.89;100.00;98309.97;5001409;28;20081;-47
2023/03/31 10:36:25;;;;;;;16.40;4.70;;;;;;;10.95;100.00;98316.66;5006625;28;20053;-46
2023/03/31 10:38:53;;;;;;;11.17;4.73;;;;;;;10.97;100.00;98321.78;5009384;28;20085;-46
2023/03/31 10:41:23;;;;;;;14.68;6.60;;;;;;;10.97;100.00;98319.81;5009414;28;20871;-46
2023/03/31 10:43:54;;;;;;;22.30;5.53;;;;;;;11.03;100.00;98322.94;5010379;28;20046;-50
2023/03/31 10:46:48;;;;;;;10.83;3.87;;;;;;;11.06;100.00;98329.63;5007926;28;20052;-52
2023/03/31 10:49:21;;;;;;;18.45;5.28;;;;;;;11.08;100.00;98330.00;5008146;28;20446;-55
2023/03/31 10:51:55;;;;;;;19.13;5.82;;;;;;;11.12;100.00;98337.09;5005934;28;20049;-53
2023/03/31 10:54:22;;;;;;;15.77;4.05;;;;;;;11.18;100.00;98340.22;4989645;28;22600;-50
2023/03/31 10:57:02;;;;;;;17.65;4.70;;;;;;;11.23;100.00;98342.53;5009893;28;20124;-47
2023/03/31 10:59:39;;;;;;;27.25;7.22;;;;;;;11.24;100.00;98344.94;5012503;28;20089;-62
2023/03/31 11:02:31;;;;;;;16.58;5.05;;;;;;;11.26;100.00;98341.72;5007528;28;20089;-53
2023/03/31 11:05:24;;;;;;;21.60;6.18;;;;;;;11.25;100.00;98354.78;5004649;28;20199;-52
2023/03/31 11:07:57;;;;;;;21.02;5.60;;;;;;;11.18;100.00;98359.59;5008851;28;20434;-48
2023/03/31 11:10:58;;;;;;;22.38;6.03;;;;;;;11.13;100.00;98360.81;5008685;28;20034;-47
2023/03/31 11:13:33;;;;;;;19.15;7.15;;;;;;;11.13;100.00;98360.81;5007773;28;20045;-47
2023/03/31 11:16:34;;;;;;;21.10;6.32;;;;;;;11.18;100.00;98378.97;5007701;28;20077;-53
2023/03/31 11:19:21;;;;;;;17.73;6.63;;;;;;;11.17;100.00;98377.44;4999750;28;20125;-50
2023/03/31 11:22:03;;;;;;;19.45;5.32;;;;;;;11.14;100.00;98378.25;5007953;28;20046;-50
2023/03/31 11:24:36;;;;;;;20.27;6.35;;;;;;;11.10;100.00;98386.56;5008762;28;20403;-48
2023/03/31 11:27:12;;;;;;;21.65;6.53;;;;;;;11.11;100.00;98390.91;5005617;28;20046;-48
2023/03/31 11:29:48;;;;;;;15.27;5.18;;;;;;;11.13;100.00;98396.84;5008839;28;20033;-48
2023/03/31 11:32:39;;;;;;;15.13;4.95;;;;;;;11.16;100.00;98407.09;5015497;28;20450;-50
2023/03/31 11:35:15;;;;;;;12.02;4.78;;;;;;;11.22;100.00;98402.72;5004048;28;20404;-53
2023/03/31 11:37:51;;;;;;;15.95;4.78;;;;;;;11.32;100.00;98418.47;4989073;28;20062;-47
2023/03/31 11:40:38;;;;;;;16.50;5.07;;;;;;;11.39;100.00;98415.63;5006056;28;20137;-50
2023/03/31 11:43:35;;;;;;;14.05;4.28;;;;;;;11.43;100.00;98418.38;5007066;28;20104;-47
2023/03/31 11:46:14;;;;;;;14.55;4.28;;;;;;;11.43;100.00;98424.72;4991899;28;20512;-48
2023/03/31 11:48:51;;;;;;;19.17;5.18;;;;;;;11.47;100.00;98431.00;5009834;28;20496;-47